sensor_id;sensor_type;location;lat;lon;timestamp;noise_LAeq;noise_LA_min;noise_LA_max;noise_LA01;noise_LA95
69619;Laerm;57653;51.434;5.984;2024-01-25T00:00:00;32.55;30.01;43.51;;
69619;Laerm;57653;51.434;5.984;2024-01-25T00:00:11;40.90;30.84;57.36;;
69619;Laerm;57653;51.434;5.984;2024-01-25T00:00:21;36.56;30.04;52.94;;
69619;Laerm;57653;51.434;5.984;2024-01-25T00:00:31;30.81;29.52;35.77;;
69619;Laerm;57653;51.434;5.984;2024-01-25T00:00:42;31.26;29.69;44.45;;
69619;Laerm;57653;51.434;5.984;2024-01-25T00:00:52;31.09;29.87;34.32;;
69619;Laerm;57653;51.434;5.984;2024-01-25T00:01:02;30.93;30.01;32.55;;
69619;Laerm;57653;51.434;5.984;2024-01-25T00:01:13;31.97;30.31;44.55;;
69619;Laerm;57653;51.434;5.984;2024-01-25T00:01:23;34.10;30.17;52.46;;
69619;Laerm;57653;51.434;5.984;2024-01-25T00:01:39;34.96;30.01;52.19;;
69619;Laerm;57653;51.434;5.984;2024-01-25T00:01:49;32.46;30.17;41.52;;
69619;Laerm;57653;51.434;5.984;2024-01-25T00:02:00;39.75;30.38;54.54;;
69619;Laerm;57653;51.434;5.984;2024-01-25T00:02:10;34.45;30.00;52.76;;
69619;Laerm;57653;51.434;5.984;2024-01-25T00:02:20;35.20;30.12;48.57;;
69619;Laerm;57653;51.434;5.984;2024-01-25T00:02:33;41.92;30.52;61.01;;
69619;Laerm;57653;51.434;5.984;2024-01-25T00:02:43;33.40;30.59;51.78;;
69619;Laerm;57653;51.434;5.984;2024-01-25T00:02:53;33.58;30.71;46.35;;
69619;Laerm;57653;51.434;5.984;2024-01-25T00:03:03;38.10;30.78;54.63;;
69619;Laerm;57653;51.434;5.984;2024-01-25T00:03:14;50.50;32.71;60.16;;
69619;Laerm;57653;51.434;5.984;2024-01-25T00:03:24;41.51;30.54;60.17;;
69619;Laerm;57653;51.434;5.984;2024-01-25T00:03:35;32.68;30.36;48.53;;
69619;Laerm;57653;51.434;5.984;2024-01-25T00:03:45;32.83;30.08;46.51;;
69619;Laerm;57653;51.434;5.984;2024-01-25T00:03:55;32.31;30.60;36.51;;
69619;Laerm;57653;51.434;5.984;2024-01-25T00:04:08;36.04;30.70;53.36;;
69619;Laerm;57653;51.434;5.984;2024-01-25T00:04:18;33.49;30.27;44.62;;
69619;Laerm;57653;51.434;5.984;2024-01-25T00:04:29;32.63;30.31;46.95;;
69619;Laerm;57653;51.434;5.984;2024-01-25T00:04:39;36.89;30.92;53.70;;
69619;Laerm;57653;51.434;5.984;2024-01-25T00:04:49;38.59;31.65;53.33;;
69619;Laerm;57653;51.434;5.984;2024-01-25T00:05:00;36.47;30.45;49.61;;
69619;Laerm;57653;51.434;5.984;2024-01-25T00:05:10;35.04;30.46;48.00;;
69619;Laerm;57653;51.434;5.984;2024-01-25T00:05:20;31.67;29.90;43.50;;
69619;Laerm;57653;51.434;5.984;2024-01-25T00:05:30;32.81;30.53;43.12;;
69619;Laerm;57653;51.434;5.984;2024-01-25T00:05:41;33.97;29.83;44.35;;
69619;Laerm;57653;51.434;5.984;2024-01-25T00:05:51;34.06;29.92;51.35;;
69619;Laerm;57653;51.434;5.984;2024-01-25T00:06:02;31.79;30.02;40.42;;
69619;Laerm;57653;51.434;5.984;2024-01-25T00:06:12;32.45;29.47;47.96;;
69619;Laerm;57653;51.434;5.984;2024-01-25T00:06:22;31.45;30.03;39.94;;
69619;Laerm;57653;51.434;5.984;2024-01-25T00:06:33;44.49;29.73;60.21;;
69619;Laerm;57653;51.434;5.984;2024-01-25T00:07:02;49.71;32.21;64.40;;
69619;Laerm;57653;51.434;5.984;2024-01-25T00:07:13;45.54;31.51;60.82;;
69619;Laerm;57653;51.434;5.984;2024-01-25T00:07:23;33.37;30.93;45.54;;
69619;Laerm;57653;51.434;5.984;2024-01-25T00:07:33;33.29;30.54;41.82;;
69619;Laerm;57653;51.434;5.984;2024-01-25T00:07:49;41.40;31.03;53.91;;
69619;Laerm;57653;51.434;5.984;2024-01-25T00:07:59;40.95;29.64;61.23;;
69619;Laerm;57653;51.434;5.984;2024-01-25T00:08:10;33.67;30.02;50.77;;
69619;Laerm;57653;51.434;5.984;2024-01-25T00:08:20;34.31;30.35;52.09;;
69619;Laerm;57653;51.434;5.984;2024-01-25T00:08:33;36.87;30.85;58.79;;
69619;Laerm;57653;51.434;5.984;2024-01-25T00:08:44;40.06;30.34;58.26;;
69619;Laerm;57653;51.434;5.984;2024-01-25T00:08:54;32.57;30.62;43.16;;
69619;Laerm;57653;51.434;5.984;2024-01-25T00:09:05;32.35;30.50;40.93;;
69619;Laerm;57653;51.434;5.984;2024-01-25T00:09:15;32.10;30.25;41.77;;
69619;Laerm;57653;51.434;5.984;2024-01-25T00:09:27;33.31;30.25;50.15;;
69619;Laerm;57653;51.434;5.984;2024-01-25T00:09:38;31.65;30.10;37.87;;
69619;Laerm;57653;51.434;5.984;2024-01-25T00:09:48;34.31;31.03;45.10;;
69619;Laerm;57653;51.434;5.984;2024-01-25T00:09:58;37.45;32.21;49.30;;
69619;Laerm;57653;51.434;5.984;2024-01-25T00:10:08;38.55;31.00;50.21;;
69619;Laerm;57653;51.434;5.984;2024-01-25T00:10:19;34.92;30.66;46.71;;
69619;Laerm;57653;51.434;5.984;2024-01-25T00:10:29;32.96;29.72;45.36;;
69619;Laerm;57653;51.434;5.984;2024-01-25T00:10:40;32.15;29.91;45.01;;
69619;Laerm;57653;51.434;5.984;2024-01-25T00:10:50;31.34;29.83;42.54;;
69619;Laerm;57653;51.434;5.984;2024-01-25T00:11:03;33.01;30.09;45.23;;
69619;Laerm;57653;51.434;5.984;2024-01-25T00:11:15;37.34;30.16;56.07;;
69619;Laerm;57653;51.434;5.984;2024-01-25T00:11:25;36.76;30.21;52.55;;
69619;Laerm;57653;51.434;5.984;2024-01-25T00:11:35;32.09;29.91;43.34;;
69619;Laerm;57653;51.434;5.984;2024-01-25T00:11:45;32.12;29.81;43.38;;
69619;Laerm;57653;51.434;5.984;2024-01-25T00:11:56;31.56;29.72;43.18;;
69619;Laerm;57653;51.434;5.984;2024-01-25T00:12:06;32.62;30.30;43.15;;
69619;Laerm;57653;51.434;5.984;2024-01-25T00:12:16;32.32;30.34;42.45;;
69619;Laerm;57653;51.434;5.984;2024-01-25T00:12:27;31.13;30.01;37.94;;
69619;Laerm;57653;51.434;5.984;2024-01-25T00:12:37;33.68;29.97;50.82;;
69619;Laerm;57653;51.434;5.984;2024-01-25T00:12:47;32.39;29.62;45.69;;
69619;Laerm;57653;51.434;5.984;2024-01-25T00:12:58;32.97;30.08;43.13;;
69619;Laerm;57653;51.434;5.984;2024-01-25T00:13:08;36.19;30.47;51.34;;
69619;Laerm;57653;51.434;5.984;2024-01-25T00:13:18;34.03;30.01;49.77;;
69619;Laerm;57653;51.434;5.984;2024-01-25T00:13:29;36.39;30.38;49.84;;
69619;Laerm;57653;51.434;5.984;2024-01-25T00:13:39;34.93;30.46;54.72;;
69619;Laerm;57653;51.434;5.984;2024-01-25T00:13:49;40.05;30.77;54.86;;
69619;Laerm;57653;51.434;5.984;2024-01-25T00:14:00;43.20;31.18;56.11;;
69619;Laerm;57653;51.434;5.984;2024-01-25T00:14:10;35.52;30.39;48.92;;
69619;Laerm;57653;51.434;5.984;2024-01-25T00:14:21;31.71;29.79;40.89;;
69619;Laerm;57653;51.434;5.984;2024-01-25T00:14:32;34.52;30.30;52.45;;
69619;Laerm;57653;51.434;5.984;2024-01-25T00:14:42;34.79;30.18;54.12;;
69619;Laerm;57653;51.434;5.984;2024-01-25T00:14:53;32.71;30.47;40.29;;
69619;Laerm;57653;51.434;5.984;2024-01-25T00:15:03;39.08;30.12;50.20;;
69619;Laerm;57653;51.434;5.984;2024-01-25T00:15:14;34.34;30.80;49.54;;
69619;Laerm;57653;51.434;5.984;2024-01-25T00:15:24;41.28;30.69;61.21;;
69619;Laerm;57653;51.434;5.984;2024-01-25T00:15:35;35.43;30.21;49.83;;
69619;Laerm;57653;51.434;5.984;2024-01-25T00:15:45;35.12;29.75;52.85;;
69619;Laerm;57653;51.434;5.984;2024-01-25T00:15:55;31.73;30.29;38.10;;
69619;Laerm;57653;51.434;5.984;2024-01-25T00:16:06;33.77;30.54;47.18;;
69619;Laerm;57653;51.434;5.984;2024-01-25T00:16:16;35.36;30.48;54.09;;
69619;Laerm;57653;51.434;5.984;2024-01-25T00:16:28;35.81;30.44;49.62;;
69619;Laerm;57653;51.434;5.984;2024-01-25T00:16:42;41.24;30.87;55.81;;
69619;Laerm;57653;51.434;5.984;2024-01-25T00:16:52;40.67;30.71;57.32;;
69619;Laerm;57653;51.434;5.984;2024-01-25T00:17:02;31.86;30.43;39.72;;
69619;Laerm;57653;51.434;5.984;2024-01-25T00:17:13;40.30;30.78;60.99;;
69619;Laerm;57653;51.434;5.984;2024-01-25T00:17:24;33.76;29.75;49.68;;
69619;Laerm;57653;51.434;5.984;2024-01-25T00:17:34;31.72;29.92;41.61;;
69619;Laerm;57653;51.434;5.984;2024-01-25T00:17:45;34.58;30.30;50.99;;
69619;Laerm;57653;51.434;5.984;2024-01-25T00:17:55;35.22;31.13;51.67;;
69619;Laerm;57653;51.434;5.984;2024-01-25T00:18:09;34.80;30.94;49.78;;
69619;Laerm;57653;51.434;5.984;2024-01-25T00:18:19;36.38;30.79;49.78;;
69619;Laerm;57653;51.434;5.984;2024-01-25T00:18:30;32.73;30.35;46.95;;
69619;Laerm;57653;51.434;5.984;2024-01-25T00:18:40;31.37;30.01;39.28;;
69619;Laerm;57653;51.434;5.984;2024-01-25T00:18:50;31.61;30.10;42.18;;
69619;Laerm;57653;51.434;5.984;2024-01-25T00:19:01;32.18;30.49;44.40;;
69619;Laerm;57653;51.434;5.984;2024-01-25T00:19:11;32.08;30.15;42.37;;
69619;Laerm;57653;51.434;5.984;2024-01-25T00:19:21;33.08;29.69;50.32;;
69619;Laerm;57653;51.434;5.984;2024-01-25T00:19:33;31.78;30.26;43.57;;
69619;Laerm;57653;51.434;5.984;2024-01-25T00:19:43;32.56;29.95;46.10;;
69619;Laerm;57653;51.434;5.984;2024-01-25T00:19:54;31.47;30.01;35.63;;
69619;Laerm;57653;51.434;5.984;2024-01-25T00:20:04;31.55;30.27;38.71;;
69619;Laerm;57653;51.434;5.984;2024-01-25T00:20:16;32.55;30.56;40.70;;
69619;Laerm;57653;51.434;5.984;2024-01-25T00:20:26;32.77;30.68;47.28;;
69619;Laerm;57653;51.434;5.984;2024-01-25T00:20:37;32.80;30.11;47.70;;
69619;Laerm;57653;51.434;5.984;2024-01-25T00:20:47;35.51;30.11;49.43;;
69619;Laerm;57653;51.434;5.984;2024-01-25T00:20:57;34.93;29.77;51.45;;
69619;Laerm;57653;51.434;5.984;2024-01-25T00:21:07;32.93;29.78;48.36;;
69619;Laerm;57653;51.434;5.984;2024-01-25T00:21:18;33.82;30.69;43.15;;
69619;Laerm;57653;51.434;5.984;2024-01-25T00:21:28;36.12;31.00;51.86;;
69619;Laerm;57653;51.434;5.984;2024-01-25T00:21:42;35.77;31.45;45.59;;
69619;Laerm;57653;51.434;5.984;2024-01-25T00:21:53;35.94;30.36;49.65;;
69619;Laerm;57653;51.434;5.984;2024-01-25T00:22:03;41.29;30.46;62.33;;
69619;Laerm;57653;51.434;5.984;2024-01-25T00:22:13;35.82;30.25;53.77;;
69619;Laerm;57653;51.434;5.984;2024-01-25T00:22:23;32.33;29.99;44.15;;
69619;Laerm;57653;51.434;5.984;2024-01-25T00:22:34;37.59;30.44;48.39;;
69619;Laerm;57653;51.434;5.984;2024-01-25T00:22:44;32.52;30.35;47.17;;
69619;Laerm;57653;51.434;5.984;2024-01-25T00:22:55;35.00;29.98;50.43;;
69619;Laerm;57653;51.434;5.984;2024-01-25T00:23:06;36.03;30.07;53.27;;
69619;Laerm;57653;51.434;5.984;2024-01-25T00:23:16;30.92;29.46;32.31;;
69619;Laerm;57653;51.434;5.984;2024-01-25T00:23:26;33.69;30.03;47.63;;
69619;Laerm;57653;51.434;5.984;2024-01-25T00:23:37;33.17;30.45;47.05;;
69619;Laerm;57653;51.434;5.984;2024-01-25T00:23:47;32.36;30.38;40.38;;
69619;Laerm;57653;51.434;5.984;2024-01-25T00:23:58;31.81;30.12;37.36;;
69619;Laerm;57653;51.434;5.984;2024-01-25T00:24:08;31.09;30.11;32.20;;
69619;Laerm;57653;51.434;5.984;2024-01-25T00:24:18;32.64;30.09;49.36;;
69619;Laerm;57653;51.434;5.984;2024-01-25T00:24:28;33.52;30.51;44.98;;
69619;Laerm;57653;51.434;5.984;2024-01-25T00:24:39;32.54;30.66;45.55;;
69619;Laerm;57653;51.434;5.984;2024-01-25T00:24:49;32.67;31.48;34.08;;
69619;Laerm;57653;51.434;5.984;2024-01-25T00:24:59;37.03;31.47;51.36;;
69619;Laerm;57653;51.434;5.984;2024-01-25T00:25:10;38.56;32.85;53.05;;
69619;Laerm;57653;51.434;5.984;2024-01-25T00:25:20;36.85;34.09;46.49;;
69619;Laerm;57653;51.434;5.984;2024-01-25T00:25:31;47.33;37.51;53.47;;
69619;Laerm;57653;51.434;5.984;2024-01-25T00:25:41;60.71;51.72;65.12;;
69619;Laerm;57653;51.434;5.984;2024-01-25T00:25:51;64.14;61.98;66.45;;
69619;Laerm;57653;51.434;5.984;2024-01-25T00:26:02;64.30;60.47;66.98;;
69619;Laerm;57653;51.434;5.984;2024-01-25T00:26:12;55.67;33.18;65.10;;
69619;Laerm;57653;51.434;5.984;2024-01-25T00:26:23;32.68;30.32;48.96;;
69619;Laerm;57653;51.434;5.984;2024-01-25T00:26:33;32.74;29.86;43.97;;
69619;Laerm;57653;51.434;5.984;2024-01-25T00:26:43;31.28;29.66;40.50;;
69619;Laerm;57653;51.434;5.984;2024-01-25T00:26:53;34.59;29.80;54.83;;
69619;Laerm;57653;51.434;5.984;2024-01-25T00:27:04;32.11;29.61;48.67;;
69619;Laerm;57653;51.434;5.984;2024-01-25T00:27:23;31.17;29.89;41.33;;
69619;Laerm;57653;51.434;5.984;2024-01-25T00:27:34;31.19;29.57;41.86;;
69619;Laerm;57653;51.434;5.984;2024-01-25T00:27:44;31.63;29.52;44.53;;
69619;Laerm;57653;51.434;5.984;2024-01-25T00:27:54;31.19;29.77;39.22;;
69619;Laerm;57653;51.434;5.984;2024-01-25T00:28:05;31.76;30.00;45.34;;
69619;Laerm;57653;51.434;5.984;2024-01-25T00:28:15;30.86;29.74;36.45;;
69619;Laerm;57653;51.434;5.984;2024-01-25T00:28:26;32.49;29.99;44.86;;
69619;Laerm;57653;51.434;5.984;2024-01-25T00:28:36;35.66;30.15;44.82;;
69619;Laerm;57653;51.434;5.984;2024-01-25T00:28:46;34.97;29.52;50.98;;
69619;Laerm;57653;51.434;5.984;2024-01-25T00:28:57;33.74;29.63;54.03;;
69619;Laerm;57653;51.434;5.984;2024-01-25T00:29:07;32.76;29.74;47.01;;
69619;Laerm;57653;51.434;5.984;2024-01-25T00:29:17;31.06;29.73;37.95;;
69619;Laerm;57653;51.434;5.984;2024-01-25T00:29:29;30.77;29.37;36.27;;
69619;Laerm;57653;51.434;5.984;2024-01-25T00:29:40;30.63;29.62;34.34;;
69619;Laerm;57653;51.434;5.984;2024-01-25T00:29:51;30.77;29.84;31.92;;
69619;Laerm;57653;51.434;5.984;2024-01-25T00:30:02;31.79;29.38;49.53;;
69619;Laerm;57653;51.434;5.984;2024-01-25T00:30:12;30.96;29.59;39.00;;
69619;Laerm;57653;51.434;5.984;2024-01-25T00:30:22;31.06;29.59;38.39;;
69619;Laerm;57653;51.434;5.984;2024-01-25T00:30:33;31.23;29.67;45.08;;
69619;Laerm;57653;51.434;5.984;2024-01-25T00:30:44;30.65;29.44;31.86;;
69619;Laerm;57653;51.434;5.984;2024-01-25T00:30:54;31.31;29.38;40.18;;
69619;Laerm;57653;51.434;5.984;2024-01-25T00:31:05;34.23;29.78;51.82;;
69619;Laerm;57653;51.434;5.984;2024-01-25T00:31:15;31.33;29.74;37.88;;
69619;Laerm;57653;51.434;5.984;2024-01-25T00:31:25;30.99;29.61;42.22;;
69619;Laerm;57653;51.434;5.984;2024-01-25T00:31:36;31.44;29.77;46.69;;
69619;Laerm;57653;51.434;5.984;2024-01-25T00:31:46;31.51;29.69;46.95;;
69619;Laerm;57653;51.434;5.984;2024-01-25T00:31:56;31.61;29.89;44.82;;
69619;Laerm;57653;51.434;5.984;2024-01-25T00:32:08;32.52;29.60;46.68;;
69619;Laerm;57653;51.434;5.984;2024-01-25T00:32:18;31.13;29.90;36.06;;
69619;Laerm;57653;51.434;5.984;2024-01-25T00:32:28;31.80;30.17;40.06;;
69619;Laerm;57653;51.434;5.984;2024-01-25T00:32:38;32.02;30.42;39.01;;
69619;Laerm;57653;51.434;5.984;2024-01-25T00:32:50;31.77;30.21;43.30;;
69619;Laerm;57653;51.434;5.984;2024-01-25T00:33:00;31.68;29.13;41.67;;
69619;Laerm;57653;51.434;5.984;2024-01-25T00:33:11;32.24;30.59;41.82;;
69619;Laerm;57653;51.434;5.984;2024-01-25T00:33:22;35.10;30.77;54.71;;
69619;Laerm;57653;51.434;5.984;2024-01-25T00:33:32;44.95;32.09;60.13;;
69619;Laerm;57653;51.434;5.984;2024-01-25T00:33:42;39.86;30.64;53.66;;
69619;Laerm;57653;51.434;5.984;2024-01-25T00:33:53;37.71;30.21;55.82;;
69619;Laerm;57653;51.434;5.984;2024-01-25T00:34:03;32.73;29.94;46.04;;
69619;Laerm;57653;51.434;5.984;2024-01-25T00:34:14;32.66;29.99;46.04;;
69619;Laerm;57653;51.434;5.984;2024-01-25T00:34:24;36.54;30.12;52.19;;
69619;Laerm;57653;51.434;5.984;2024-01-25T00:34:35;38.52;30.60;53.14;;
69619;Laerm;57653;51.434;5.984;2024-01-25T00:34:45;31.99;30.06;44.83;;
69619;Laerm;57653;51.434;5.984;2024-01-25T00:34:56;35.71;29.97;51.33;;
69619;Laerm;57653;51.434;5.984;2024-01-25T00:35:06;32.40;30.56;38.28;;
69619;Laerm;57653;51.434;5.984;2024-01-25T00:35:19;33.52;31.07;47.04;;
69619;Laerm;57653;51.434;5.984;2024-01-25T00:35:30;34.00;30.05;44.85;;
69619;Laerm;57653;51.434;5.984;2024-01-25T00:35:47;32.47;30.18;47.30;;
69619;Laerm;57653;51.434;5.984;2024-01-25T00:35:58;31.87;29.58;44.85;;
69619;Laerm;57653;51.434;5.984;2024-01-25T00:36:09;32.78;29.99;51.36;;
69619;Laerm;57653;51.434;5.984;2024-01-25T00:36:35;35.26;29.76;57.92;;
69619;Laerm;57653;51.434;5.984;2024-01-25T00:36:45;32.26;29.59;45.83;;
69619;Laerm;57653;51.434;5.984;2024-01-25T00:36:56;35.55;30.38;50.15;;
69619;Laerm;57653;51.434;5.984;2024-01-25T00:37:06;36.68;29.72;51.52;;
69619;Laerm;57653;51.434;5.984;2024-01-25T00:37:16;31.58;29.53;44.43;;
69619;Laerm;57653;51.434;5.984;2024-01-25T00:37:29;30.78;29.66;31.86;;
69619;Laerm;57653;51.434;5.984;2024-01-25T00:37:40;30.78;29.83;31.85;;
69619;Laerm;57653;51.434;5.984;2024-01-25T00:37:50;30.73;29.52;31.89;;
69619;Laerm;57653;51.434;5.984;2024-01-25T00:38:03;30.84;29.84;37.05;;
69619;Laerm;57653;51.434;5.984;2024-01-25T00:38:13;30.73;29.50;31.80;;
69619;Laerm;57653;51.434;5.984;2024-01-25T00:38:24;32.35;29.69;49.95;;
69619;Laerm;57653;51.434;5.984;2024-01-25T00:38:34;30.83;29.88;32.60;;
69619;Laerm;57653;51.434;5.984;2024-01-25T00:38:45;31.03;29.89;36.21;;
69619;Laerm;57653;51.434;5.984;2024-01-25T00:38:55;37.13;29.61;48.58;;
69619;Laerm;57653;51.434;5.984;2024-01-25T00:39:13;35.55;29.52;47.45;;
69619;Laerm;57653;51.434;5.984;2024-01-25T00:39:23;31.34;29.80;43.11;;
69619;Laerm;57653;51.434;5.984;2024-01-25T00:39:33;31.15;29.86;38.48;;
69619;Laerm;57653;51.434;5.984;2024-01-25T00:39:45;32.55;30.11;49.63;;
69619;Laerm;57653;51.434;5.984;2024-01-25T00:39:55;31.17;29.81;43.57;;
69619;Laerm;57653;51.434;5.984;2024-01-25T00:40:06;31.17;29.51;42.02;;
69619;Laerm;57653;51.434;5.984;2024-01-25T00:40:19;31.07;29.74;41.90;;
69619;Laerm;57653;51.434;5.984;2024-01-25T00:40:29;30.96;29.63;38.81;;
69619;Laerm;57653;51.434;5.984;2024-01-25T00:40:39;31.14;29.97;38.94;;
69619;Laerm;57653;51.434;5.984;2024-01-25T00:40:50;31.32;29.62;42.09;;
69619;Laerm;57653;51.434;5.984;2024-01-25T00:41:00;31.17;29.47;38.26;;
69619;Laerm;57653;51.434;5.984;2024-01-25T00:41:11;35.83;30.00;48.01;;
69619;Laerm;57653;51.434;5.984;2024-01-25T00:41:29;33.04;29.69;51.72;;
69619;Laerm;57653;51.434;5.984;2024-01-25T00:41:42;31.66;29.82;41.81;;
69619;Laerm;57653;51.434;5.984;2024-01-25T00:41:55;39.86;30.38;59.33;;
69619;Laerm;57653;51.434;5.984;2024-01-25T00:42:08;32.74;29.91;46.52;;
69619;Laerm;57653;51.434;5.984;2024-01-25T00:42:24;31.22;29.70;38.48;;
69619;Laerm;57653;51.434;5.984;2024-01-25T00:42:37;32.30;29.56;48.38;;
69619;Laerm;57653;51.434;5.984;2024-01-25T00:42:50;31.68;29.84;43.23;;
69619;Laerm;57653;51.434;5.984;2024-01-25T00:43:04;32.60;29.98;45.77;;
69619;Laerm;57653;51.434;5.984;2024-01-25T00:43:14;31.64;29.88;44.54;;
69619;Laerm;57653;51.434;5.984;2024-01-25T00:43:25;30.97;29.68;37.64;;
69619;Laerm;57653;51.434;5.984;2024-01-25T00:43:35;31.02;29.71;34.83;;
69619;Laerm;57653;51.434;5.984;2024-01-25T00:43:45;32.75;29.66;50.09;;
69619;Laerm;57653;51.434;5.984;2024-01-25T00:43:56;31.09;29.65;40.92;;
69619;Laerm;57653;51.434;5.984;2024-01-25T00:44:06;31.03;29.67;38.55;;
69619;Laerm;57653;51.434;5.984;2024-01-25T00:44:16;31.08;29.69;37.08;;
69619;Laerm;57653;51.434;5.984;2024-01-25T00:44:27;30.94;29.72;33.91;;
69619;Laerm;57653;51.434;5.984;2024-01-25T00:44:37;32.36;29.83;50.77;;
69619;Laerm;57653;51.434;5.984;2024-01-25T00:44:48;36.93;29.85;54.24;;
69619;Laerm;57653;51.434;5.984;2024-01-25T00:44:58;35.37;29.89;52.69;;
69619;Laerm;57653;51.434;5.984;2024-01-25T00:45:09;33.15;29.63;53.51;;
69619;Laerm;57653;51.434;5.984;2024-01-25T00:45:20;31.80;29.64;44.88;;
69619;Laerm;57653;51.434;5.984;2024-01-25T00:45:31;32.38;29.71;49.32;;
69619;Laerm;57653;51.434;5.984;2024-01-25T00:45:41;33.95;29.76;52.95;;
69619;Laerm;57653;51.434;5.984;2024-01-25T00:45:52;32.40;29.91;47.74;;
69619;Laerm;57653;51.434;5.984;2024-01-25T00:46:02;31.36;29.82;35.26;;
69619;Laerm;57653;51.434;5.984;2024-01-25T00:46:13;31.47;29.99;37.01;;
69619;Laerm;57653;51.434;5.984;2024-01-25T00:46:24;31.46;30.19;40.18;;
69619;Laerm;57653;51.434;5.984;2024-01-25T00:46:34;31.73;29.60;44.99;;
69619;Laerm;57653;51.434;5.984;2024-01-25T00:46:45;31.22;29.40;36.64;;
69619;Laerm;57653;51.434;5.984;2024-01-25T00:46:57;31.96;30.07;41.95;;
69619;Laerm;57653;51.434;5.984;2024-01-25T00:47:07;31.08;29.81;34.77;;
69619;Laerm;57653;51.434;5.984;2024-01-25T00:47:18;32.67;29.97;41.89;;
69619;Laerm;57653;51.434;5.984;2024-01-25T00:47:29;35.20;30.51;49.46;;
69619;Laerm;57653;51.434;5.984;2024-01-25T00:47:39;32.42;29.82;45.45;;
69619;Laerm;57653;51.434;5.984;2024-01-25T00:47:50;31.65;30.14;40.95;;
69619;Laerm;57653;51.434;5.984;2024-01-25T00:48:01;31.90;29.95;44.36;;
69619;Laerm;57653;51.434;5.984;2024-01-25T00:48:11;31.33;29.67;39.68;;
69619;Laerm;57653;51.434;5.984;2024-01-25T00:48:22;31.04;29.81;38.97;;
69619;Laerm;57653;51.434;5.984;2024-01-25T00:48:33;31.84;29.72;43.60;;
69619;Laerm;57653;51.434;5.984;2024-01-25T00:48:43;30.95;29.77;36.27;;
69619;Laerm;57653;51.434;5.984;2024-01-25T00:48:54;30.81;29.62;33.95;;
69619;Laerm;57653;51.434;5.984;2024-01-25T00:49:04;31.47;29.98;43.26;;
69619;Laerm;57653;51.434;5.984;2024-01-25T00:49:15;35.92;29.97;53.88;;
69619;Laerm;57653;51.434;5.984;2024-01-25T00:49:25;36.41;29.77;56.78;;
69619;Laerm;57653;51.434;5.984;2024-01-25T00:49:35;30.78;29.26;35.78;;
69619;Laerm;57653;51.434;5.984;2024-01-25T00:49:46;32.32;29.43;47.93;;
69619;Laerm;57653;51.434;5.984;2024-01-25T00:49:56;31.32;29.51;38.51;;
69619;Laerm;57653;51.434;5.984;2024-01-25T00:50:07;33.97;31.44;45.58;;
69619;Laerm;57653;51.434;5.984;2024-01-25T00:50:17;35.76;30.97;55.41;;
69619;Laerm;57653;51.434;5.984;2024-01-25T00:50:30;39.27;31.30;54.41;;
69619;Laerm;57653;51.434;5.984;2024-01-25T00:50:41;35.90;30.42;52.39;;
69619;Laerm;57653;51.434;5.984;2024-01-25T00:50:51;35.64;30.53;53.62;;
69619;Laerm;57653;51.434;5.984;2024-01-25T00:51:02;34.21;30.18;53.56;;
69619;Laerm;57653;51.434;5.984;2024-01-25T00:51:18;32.24;30.42;42.37;;
69619;Laerm;57653;51.434;5.984;2024-01-25T00:51:30;36.50;30.36;55.22;;
69619;Laerm;57653;51.434;5.984;2024-01-25T00:51:41;31.39;29.86;35.62;;
69619;Laerm;57653;51.434;5.984;2024-01-25T00:51:55;31.30;29.86;38.26;;
69619;Laerm;57653;51.434;5.984;2024-01-25T00:52:08;33.76;29.68;51.69;;
69619;Laerm;57653;51.434;5.984;2024-01-25T00:52:20;32.43;29.84;41.80;;
69619;Laerm;57653;51.434;5.984;2024-01-25T00:52:30;31.63;29.89;45.84;;
69619;Laerm;57653;51.434;5.984;2024-01-25T00:52:41;31.39;29.80;39.52;;
69619;Laerm;57653;51.434;5.984;2024-01-25T00:52:51;35.25;29.94;53.83;;
69619;Laerm;57653;51.434;5.984;2024-01-25T00:53:02;31.46;30.28;32.90;;
69619;Laerm;57653;51.434;5.984;2024-01-25T00:53:16;31.84;29.98;45.09;;
69619;Laerm;57653;51.434;5.984;2024-01-25T00:53:27;31.09;29.92;34.75;;
69619;Laerm;57653;51.434;5.984;2024-01-25T00:53:37;31.43;29.43;43.26;;
69619;Laerm;57653;51.434;5.984;2024-01-25T00:53:48;31.53;30.04;39.72;;
69619;Laerm;57653;51.434;5.984;2024-01-25T00:53:58;31.87;29.85;45.18;;
69619;Laerm;57653;51.434;5.984;2024-01-25T00:54:08;31.45;29.72;42.44;;
69619;Laerm;57653;51.434;5.984;2024-01-25T00:54:19;31.16;29.80;37.89;;
69619;Laerm;57653;51.434;5.984;2024-01-25T00:54:29;31.90;29.59;45.19;;
69619;Laerm;57653;51.434;5.984;2024-01-25T00:54:40;30.86;29.77;33.79;;
69619;Laerm;57653;51.434;5.984;2024-01-25T00:54:50;30.81;29.58;32.65;;
69619;Laerm;57653;51.434;5.984;2024-01-25T00:55:02;30.93;29.39;37.97;;
69619;Laerm;57653;51.434;5.984;2024-01-25T00:55:12;31.20;29.77;42.78;;
69619;Laerm;57653;51.434;5.984;2024-01-25T00:55:23;30.94;29.73;35.64;;
69619;Laerm;57653;51.434;5.984;2024-01-25T00:55:33;30.78;29.43;33.21;;
69619;Laerm;57653;51.434;5.984;2024-01-25T00:55:43;30.83;29.34;32.20;;
69619;Laerm;57653;51.434;5.984;2024-01-25T00:55:55;31.08;29.79;41.38;;
69619;Laerm;57653;51.434;5.984;2024-01-25T00:56:05;30.70;29.60;32.29;;
69619;Laerm;57653;51.434;5.984;2024-01-25T00:56:16;30.86;29.61;35.40;;
69619;Laerm;57653;51.434;5.984;2024-01-25T00:56:26;32.97;29.77;50.68;;
69619;Laerm;57653;51.434;5.984;2024-01-25T00:56:37;31.19;29.83;43.08;;
69619;Laerm;57653;51.434;5.984;2024-01-25T00:56:47;31.17;29.96;40.95;;
69619;Laerm;57653;51.434;5.984;2024-01-25T00:57:01;31.47;29.77;40.92;;
69619;Laerm;57653;51.434;5.984;2024-01-25T00:57:11;31.53;29.89;43.29;;
69619;Laerm;57653;51.434;5.984;2024-01-25T00:57:21;31.53;29.35;44.11;;
69619;Laerm;57653;51.434;5.984;2024-01-25T00:57:32;31.50;29.48;45.80;;
69619;Laerm;57653;51.434;5.984;2024-01-25T00:57:42;30.84;29.62;34.25;;
69619;Laerm;57653;51.434;5.984;2024-01-25T00:57:53;31.12;29.77;41.09;;
69619;Laerm;57653;51.434;5.984;2024-01-25T00:58:04;34.59;29.95;50.73;;
69619;Laerm;57653;51.434;5.984;2024-01-25T00:58:15;32.82;29.95;47.38;;
69619;Laerm;57653;51.434;5.984;2024-01-25T00:58:25;32.59;29.81;48.04;;
69619;Laerm;57653;51.434;5.984;2024-01-25T00:58:38;31.03;30.11;34.90;;
69619;Laerm;57653;51.434;5.984;2024-01-25T00:58:48;31.02;29.74;40.03;;
69619;Laerm;57653;51.434;5.984;2024-01-25T00:58:58;31.39;29.57;43.67;;
69619;Laerm;57653;51.434;5.984;2024-01-25T00:59:10;31.46;29.67;44.27;;
69619;Laerm;57653;51.434;5.984;2024-01-25T00:59:21;31.10;29.67;41.48;;
69619;Laerm;57653;51.434;5.984;2024-01-25T00:59:32;31.69;29.77;45.19;;
69619;Laerm;57653;51.434;5.984;2024-01-25T00:59:42;31.75;29.59;48.07;;
69619;Laerm;57653;51.434;5.984;2024-01-25T00:59:53;30.74;29.58;32.06;;
69619;Laerm;57653;51.434;5.984;2024-01-25T01:00:03;30.71;29.61;34.80;;
69619;Laerm;57653;51.434;5.984;2024-01-25T01:00:34;31.40;29.67;45.82;;
69619;Laerm;57653;51.434;5.984;2024-01-25T01:00:44;31.26;29.56;38.57;;
69619;Laerm;57653;51.434;5.984;2024-01-25T01:00:55;32.89;29.87;50.99;;
69619;Laerm;57653;51.434;5.984;2024-01-25T01:01:05;31.49;29.61;44.52;;
69619;Laerm;57653;51.434;5.984;2024-01-25T01:01:16;31.68;29.54;46.16;;
69619;Laerm;57653;51.434;5.984;2024-01-25T01:01:29;32.33;29.83;49.90;;